createdAt,value
2023-03-18T00:01:17.496Z,17.80
2023-03-18T00:06:24.820Z,17.60
2023-03-18T00:11:32.406Z,18.60
2023-03-18T00:16:40.297Z,19.00
2023-03-18T00:21:48.240Z,17.90
2023-03-18T00:26:56.879Z,20.30
2023-03-18T00:32:04.474Z,22.70
2023-03-18T00:37:19.251Z,21.70
2023-03-18T00:42:26.677Z,19.10
2023-03-18T00:47:34.068Z,17.40
2023-03-18T00:52:41.598Z,15.80
2023-03-18T00:57:49.212Z,15.40
2023-03-18T01:02:57.609Z,16.70
2023-03-18T01:08:05.248Z,14.50
2023-03-18T01:13:12.663Z,13.70
2023-03-18T01:18:20.954Z,18.00
2023-03-18T01:23:28.236Z,18.40
2023-03-18T01:33:42.633Z,15.50
2023-03-18T01:44:29.507Z,14.90
2023-03-18T01:49:41.228Z,15.30
2023-03-18T01:54:52.525Z,17.40
2023-03-18T02:00:01.964Z,13.40
2023-03-18T02:05:13.496Z,14.30
2023-03-18T02:10:24.202Z,17.30
2023-03-18T02:15:33.310Z,12.50
2023-03-18T02:20:49.323Z,16.40
2023-03-18T02:26:02.508Z,12.30
2023-03-18T02:31:15.061Z,12.40
2023-03-18T02:36:25.800Z,14.10
2023-03-18T02:41:35.777Z,12.70
2023-03-18T02:46:54.174Z,13.00
2023-03-18T02:52:01.632Z,14.50
2023-03-18T02:57:09.410Z,12.60
2023-03-18T03:02:17.195Z,15.10
2023-03-18T03:07:27.409Z,18.70
2023-03-18T03:12:34.886Z,13.60
2023-03-18T03:17:42.994Z,13.70
2023-03-18T03:22:51.209Z,16.90
2023-03-18T03:27:59.010Z,17.80
2023-03-18T03:33:08.511Z,13.00
2023-03-18T03:38:16.330Z,14.60
2023-03-18T03:43:24.036Z,13.80
2023-03-18T03:48:33.057Z,17.00
2023-03-18T03:53:42.203Z,12.20
2023-03-18T03:58:49.817Z,15.20
2023-03-18T04:03:57.113Z,13.90
2023-03-18T04:14:11.840Z,13.80
2023-03-18T04:19:19.211Z,16.80
2023-03-18T04:29:32.710Z,11.60
2023-03-18T04:34:40.882Z,12.60
2023-03-18T04:39:49.154Z,13.10
2023-03-18T04:44:56.773Z,16.60
2023-03-18T04:50:05.232Z,16.00
2023-03-18T04:55:14.548Z,17.40
2023-03-18T05:00:24.036Z,13.70
2023-03-18T05:05:37.965Z,15.20
2023-03-18T05:10:46.701Z,11.90
2023-03-18T05:15:55.256Z,14.30
2023-03-18T05:21:03.360Z,14.30
2023-03-18T05:26:11.944Z,11.40
2023-03-18T05:31:19.979Z,14.90
2023-03-18T05:44:25.404Z,16.90
2023-03-18T05:49:32.910Z,16.50
2023-03-18T05:54:40.311Z,13.50
2023-03-18T05:59:47.610Z,14.40
2023-03-18T06:10:00.763Z,14.60
2023-03-18T06:15:11.108Z,14.30
2023-03-18T06:20:20.604Z,16.30
2023-03-18T06:25:28.434Z,16.80
2023-03-18T06:30:36.145Z,13.70
2023-03-18T06:35:44.496Z,13.70
2023-03-18T06:40:51.667Z,15.00
2023-03-18T06:45:59.820Z,14.50
2023-03-18T06:51:07.894Z,18.90
2023-03-18T06:56:16.645Z,19.10
2023-03-18T07:01:24.210Z,17.60
2023-03-18T07:06:32.356Z,16.20
2023-03-18T07:11:39.580Z,16.90
2023-03-18T07:21:54.058Z,17.40
2023-03-18T07:27:01.267Z,18.40
2023-03-18T07:37:15.280Z,16.90
2023-03-18T07:46:07.366Z,16.60
2023-03-18T07:51:15.431Z,15.40
2023-03-18T07:56:22.966Z,15.20
2023-03-18T08:01:31.009Z,16.80
2023-03-18T08:06:39.310Z,14.60
2023-03-18T08:11:47.235Z,18.70
2023-03-18T08:16:55.309Z,12.80
2023-03-18T08:22:02.862Z,18.40
2023-03-18T08:27:11.390Z,20.20
2023-03-18T08:32:19.817Z,18.60
2023-03-18T08:37:27.642Z,15.10
2023-03-18T08:42:35.254Z,15.40
2023-03-18T08:47:43.032Z,15.40
2023-03-18T08:52:50.893Z,17.50
2023-03-18T08:57:58.997Z,15.10
2023-03-18T09:03:07.016Z,17.80
2023-03-18T09:08:14.618Z,16.30
2023-03-18T09:13:22.159Z,18.50
2023-03-18T09:18:30.534Z,14.60
2023-03-18T09:23:38.620Z,13.40
2023-03-18T09:28:47.407Z,11.30
2023-03-18T09:33:54.723Z,12.80
2023-03-18T09:39:02.593Z,14.80
2023-03-18T09:44:18.967Z,14.70
2023-03-18T09:49:45.085Z,14.90
2023-03-18T09:55:03.039Z,10.80
2023-03-18T10:00:20.826Z,12.80
2023-03-18T10:05:34.756Z,13.60
2023-03-18T10:10:47.605Z,14.90
2023-03-18T10:15:58.387Z,10.40
2023-03-18T10:21:19.499Z,10.60
2023-03-18T10:26:32.454Z,10.30
2023-03-18T10:31:50.178Z,12.20
2023-03-18T10:37:07.215Z,12.00
2023-03-18T10:42:23.303Z,8.90
2023-03-18T10:47:35.130Z,10.50
2023-03-18T10:52:53.855Z,8.90
2023-03-18T10:58:01.984Z,8.70
2023-03-18T11:13:53.174Z,9.80
2023-03-18T11:19:09.428Z,10.10
2023-03-18T11:24:36.699Z,10.30
2023-03-18T11:29:47.368Z,12.50
2023-03-18T11:35:00.801Z,11.10
2023-03-18T11:40:22.493Z,9.60
2023-03-18T11:45:58.377Z,11.00
2023-03-18T11:51:39.155Z,12.20
2023-03-18T11:56:51.408Z,10.00
2023-03-18T12:02:18.343Z,7.30
2023-03-18T12:07:49.818Z,9.10
2023-03-18T12:13:18.168Z,9.80
2023-03-18T12:18:56.889Z,11.50
2023-03-18T12:24:21.038Z,13.50
2023-03-18T12:29:50.276Z,10.30
2023-03-18T12:35:20.858Z,10.40
2023-03-18T12:40:37.757Z,12.10
2023-03-18T12:49:33.456Z,11.40
2023-03-18T12:54:45.452Z,11.00
2023-03-18T12:59:59.407Z,8.80
2023-03-18T13:05:20.939Z,9.00
2023-03-18T13:10:30.961Z,11.80
2023-03-18T13:15:44.390Z,8.80
2023-03-18T13:20:54.211Z,11.90
2023-03-18T13:26:13.554Z,10.80
2023-03-18T13:31:31.381Z,11.80
2023-03-18T13:37:01.090Z,10.00
2023-03-18T13:42:23.336Z,11.10
2023-03-18T13:47:33.621Z,9.70
2023-03-18T13:52:45.195Z,9.40
2023-03-18T13:57:59.461Z,11.70
2023-03-18T14:03:22.104Z,12.10
2023-03-18T14:08:50.019Z,11.40
2023-03-18T14:14:00.868Z,9.80
2023-03-18T14:19:19.312Z,11.10
2023-03-18T14:24:29.469Z,10.00
2023-03-18T14:29:42.841Z,9.40
2023-03-18T14:35:00.746Z,11.40
2023-03-18T14:40:17.439Z,10.10
2023-03-18T14:45:29.850Z,11.90
2023-03-18T14:50:43.506Z,9.70
2023-03-18T14:55:51.765Z,10.80
2023-03-18T15:01:07.137Z,10.90
2023-03-18T15:06:22.036Z,9.60
2023-03-18T15:11:30.456Z,10.00
2023-03-18T15:16:38.589Z,7.10
2023-03-18T15:21:47.239Z,8.20
2023-03-18T15:27:02.178Z,6.80
2023-03-18T15:32:21.132Z,8.20
2023-03-18T15:37:41.285Z,7.30
2023-03-18T15:42:49.506Z,8.70
2023-03-18T15:47:57.932Z,8.60
2023-03-18T15:53:18.246Z,10.70
2023-03-18T15:58:29.333Z,9.90
2023-03-18T16:03:38.085Z,8.40
2023-03-18T16:08:46.419Z,12.20
2023-03-18T16:13:54.152Z,10.50
2023-03-18T16:19:06.963Z,15.20
2023-03-18T16:24:14.688Z,16.80
2023-03-18T16:29:28.094Z,16.50
2023-03-18T16:34:35.727Z,18.20
2023-03-18T16:39:43.617Z,19.40
2023-03-18T16:44:51.141Z,18.20
2023-03-18T16:49:59.333Z,20.90
2023-03-18T16:55:07.945Z,17.80
2023-03-18T17:00:21.514Z,14.80
2023-03-18T17:05:29.659Z,17.90
2023-03-18T17:10:38.860Z,19.50
2023-03-18T17:15:46.811Z,20.70
2023-03-18T17:20:54.679Z,24.60
2023-03-18T17:26:05.066Z,20.00
2023-03-18T17:31:14.275Z,20.80
2023-03-18T17:36:22.147Z,24.90
2023-03-18T17:41:29.922Z,23.60
2023-03-18T17:46:38.238Z,21.90
2023-03-18T17:51:48.786Z,30.90
2023-03-18T17:56:56.425Z,28.20
2023-03-18T18:02:04.173Z,34.70
2023-03-18T18:07:20.092Z,28.60
2023-03-18T18:12:29.006Z,36.80
2023-03-18T18:17:36.249Z,38.80
2023-03-18T18:22:45.545Z,38.00
2023-03-18T18:27:52.862Z,38.80
2023-03-18T18:33:00.202Z,31.50
2023-03-18T18:43:59.453Z,32.90
2023-03-18T18:49:07.185Z,41.80
2023-03-18T18:54:15.529Z,32.50
2023-03-18T18:59:27.207Z,44.10
2023-03-18T19:04:35.227Z,37.80
2023-03-18T19:09:44.339Z,42.00
2023-03-18T19:14:51.780Z,37.10
2023-03-18T19:19:59.833Z,38.50
2023-03-18T19:25:10.365Z,48.90
2023-03-18T19:30:24.573Z,34.00
2023-03-18T19:35:32.547Z,37.90
2023-03-18T19:40:40.440Z,56.50
2023-03-18T19:45:51.854Z,51.10
2023-03-18T19:50:59.698Z,47.10
2023-03-18T19:56:10.648Z,54.00
2023-03-18T20:01:19.160Z,65.20
2023-03-18T20:06:28.028Z,55.50
2023-03-18T20:11:36.710Z,67.00
2023-03-18T20:16:44.444Z,68.10
2023-03-18T20:21:52.600Z,69.90
2023-03-18T20:27:00.528Z,81.80
2023-03-18T20:32:08.653Z,53.60
2023-03-18T20:37:25.828Z,64.80
2023-03-18T20:42:34.144Z,77.20
2023-03-18T20:47:42.442Z,61.20
2023-03-18T20:52:50.923Z,61.50
2023-03-18T20:57:58.680Z,63.80
2023-03-18T21:03:19.037Z,69.00
2023-03-18T21:08:27.438Z,66.90
2023-03-18T21:13:39.370Z,59.20
2023-03-18T21:18:47.954Z,68.80
2023-03-18T21:23:57.102Z,71.50
2023-03-18T21:29:05.013Z,68.90
2023-03-18T21:34:13.697Z,76.40
2023-03-18T21:39:21.545Z,82.00
2023-03-18T21:54:15.365Z,83.10
2023-03-18T21:59:22.972Z,57.40
2023-03-18T22:04:31.373Z,76.50
2023-03-18T22:09:39.812Z,83.40
2023-03-18T22:14:47.502Z,68.40
2023-03-18T22:19:56.032Z,69.70
2023-03-18T22:25:03.854Z,78.50
2023-03-18T22:30:14.650Z,69.10
2023-03-18T22:35:23.997Z,74.90
2023-03-18T22:40:33.310Z,75.30
2023-03-18T22:45:40.873Z,70.10
2023-03-18T22:50:48.738Z,65.40
2023-03-18T22:55:58.232Z,73.70
2023-03-18T23:01:06.663Z,60.70
2023-03-18T23:06:17.702Z,61.30
2023-03-18T23:11:25.326Z,66.40
2023-03-18T23:16:32.976Z,82.20
2023-03-18T23:21:42.082Z,75.20
2023-03-18T23:26:49.787Z,74.90
2023-03-18T23:37:02.784Z,60.00
2023-03-18T23:42:10.812Z,60.40
2023-03-18T23:47:19.233Z,59.60
2023-03-18T23:52:27.045Z,55.60
2023-03-18T23:57:35.543Z,69.20
